sensor_id;sensor_type;location;lat;lon;timestamp;P1;durP1;ratioP1;P2;durP2;ratioP2
53036;SDS011;38924;52.134;4.666;2022-09-21T00:01:24;244.10;;;229.18;;
53036;SDS011;38924;52.134;4.666;2022-09-21T00:04:08;235.95;;;221.05;;
53036;SDS011;38924;52.134;4.666;2022-09-21T00:06:35;223.93;;;209.57;;
53036;SDS011;38924;52.134;4.666;2022-09-21T00:09:02;220.55;;;206.25;;
53036;SDS011;38924;52.134;4.666;2022-09-21T00:11:33;254.73;;;238.95;;
53036;SDS011;38924;52.134;4.666;2022-09-21T00:14:08;233.02;;;218.63;;
53036;SDS011;38924;52.134;4.666;2022-09-21T00:16:35;238.05;;;223.00;;
53036;SDS011;38924;52.134;4.666;2022-09-21T00:19:00;221.07;;;206.98;;
53036;SDS011;38924;52.134;4.666;2022-09-21T00:21:26;223.68;;;209.30;;
53036;SDS011;38924;52.134;4.666;2022-09-21T00:23:52;220.13;;;206.63;;
53036;SDS011;38924;52.134;4.666;2022-09-21T00:26:19;227.80;;;213.52;;
53036;SDS011;38924;52.134;4.666;2022-09-21T00:28:46;229.32;;;214.95;;
53036;SDS011;38924;52.134;4.666;2022-09-21T00:31:13;215.75;;;202.38;;
53036;SDS011;38924;52.134;4.666;2022-09-21T00:33:39;221.88;;;208.02;;
53036;SDS011;38924;52.134;4.666;2022-09-21T00:36:06;236.80;;;222.15;;
53036;SDS011;38924;52.134;4.666;2022-09-21T00:38:33;231.63;;;217.13;;
53036;SDS011;38924;52.134;4.666;2022-09-21T00:40:59;233.10;;;218.63;;
53036;SDS011;38924;52.134;4.666;2022-09-21T00:43:25;244.77;;;229.32;;
53036;SDS011;38924;52.134;4.666;2022-09-21T00:45:53;226.98;;;212.95;;
53036;SDS011;38924;52.134;4.666;2022-09-21T00:48:21;224.55;;;210.43;;
53036;SDS011;38924;52.134;4.666;2022-09-21T00:50:48;235.55;;;220.75;;
53036;SDS011;38924;52.134;4.666;2022-09-21T00:53:16;223.32;;;209.32;;
53036;SDS011;38924;52.134;4.666;2022-09-21T00:55:43;221.80;;;207.48;;
53036;SDS011;38924;52.134;4.666;2022-09-21T00:58:12;219.65;;;205.85;;
53036;SDS011;38924;52.134;4.666;2022-09-21T01:00:40;235.95;;;221.10;;
53036;SDS011;38924;52.134;4.666;2022-09-21T01:03:05;230.52;;;216.05;;
53036;SDS011;38924;52.134;4.666;2022-09-21T01:05:33;227.68;;;213.43;;
53036;SDS011;38924;52.134;4.666;2022-09-21T01:07:59;220.48;;;206.27;;
53036;SDS011;38924;52.134;4.666;2022-09-21T01:10:26;212.45;;;199.13;;
53036;SDS011;38924;52.134;4.666;2022-09-21T01:13:00;210.20;;;196.90;;
53036;SDS011;38924;52.134;4.666;2022-09-21T01:28:31;227.65;;;212.90;;
53036;SDS011;38924;52.134;4.666;2022-09-21T01:30:59;204.70;;;191.45;;
53036;SDS011;38924;52.134;4.666;2022-09-21T01:33:34;222.85;;;209.15;;
53036;SDS011;38924;52.134;4.666;2022-09-21T01:36:06;200.45;;;187.70;;
53036;SDS011;38924;52.134;4.666;2022-09-21T01:38:37;213.15;;;199.80;;
53036;SDS011;38924;52.134;4.666;2022-09-21T01:41:05;190.23;;;177.98;;
53036;SDS011;38924;52.134;4.666;2022-09-21T01:43:39;211.40;;;198.05;;
53036;SDS011;38924;52.134;4.666;2022-09-21T01:46:08;201.82;;;189.23;;
53036;SDS011;38924;52.134;4.666;2022-09-21T01:48:36;207.07;;;194.05;;
53036;SDS011;38924;52.134;4.666;2022-09-21T01:51:03;208.35;;;195.27;;
53036;SDS011;38924;52.134;4.666;2022-09-21T01:53:32;220.35;;;206.55;;
53036;SDS011;38924;52.134;4.666;2022-09-21T01:56:12;219.40;;;205.35;;
53036;SDS011;38924;52.134;4.666;2022-09-21T01:59:15;197.55;;;184.90;;
53036;SDS011;38924;52.134;4.666;2022-09-21T02:01:32;201.90;;;188.93;;
53036;SDS011;38924;52.134;4.666;2022-09-21T02:04:00;210.43;;;196.82;;
53036;SDS011;38924;52.134;4.666;2022-09-21T02:06:28;224.52;;;209.30;;
53036;SDS011;38924;52.134;4.666;2022-09-21T02:08:54;207.20;;;193.88;;
53036;SDS011;38924;52.134;4.666;2022-09-21T02:11:20;191.07;;;178.88;;
53036;SDS011;38924;52.134;4.666;2022-09-21T02:13:47;204.93;;;192.05;;
53036;SDS011;38924;52.134;4.666;2022-09-21T02:16:33;185.63;;;174.00;;
53036;SDS011;38924;52.134;4.666;2022-09-21T02:19:11;185.90;;;173.95;;
53036;SDS011;38924;52.134;4.666;2022-09-21T02:24:13;328.77;;;298.88;;
53036;SDS011;38924;52.134;4.666;2022-09-21T02:26:51;243.63;;;225.93;;
53036;SDS011;38924;52.134;4.666;2022-09-21T02:32:06;189.65;;;177.32;;
53036;SDS011;38924;52.134;4.666;2022-09-21T02:34:42;195.90;;;183.88;;
53036;SDS011;38924;52.134;4.666;2022-09-21T02:37:16;189.80;;;177.82;;
53036;SDS011;38924;52.134;4.666;2022-09-21T02:39:57;194.23;;;182.25;;
53036;SDS011;38924;52.134;4.666;2022-09-21T02:42:25;190.05;;;178.02;;
53036;SDS011;38924;52.134;4.666;2022-09-21T02:45:02;429.67;;;371.52;;
53036;SDS011;38924;52.134;4.666;2022-09-21T02:47:34;276.75;;;252.52;;
53036;SDS011;38924;52.134;4.666;2022-09-21T02:50:03;197.32;;;183.48;;
53036;SDS011;38924;52.134;4.666;2022-09-21T02:52:30;183.93;;;172.25;;
53036;SDS011;38924;52.134;4.666;2022-09-21T02:54:57;198.75;;;186.35;;
53036;SDS011;38924;52.134;4.666;2022-09-21T02:57:23;295.85;;;267.98;;
53036;SDS011;38924;52.134;4.666;2022-09-21T02:59:49;216.40;;;199.77;;
53036;SDS011;38924;52.134;4.666;2022-09-21T03:02:15;195.77;;;182.82;;
53036;SDS011;38924;52.134;4.666;2022-09-21T03:04:42;193.35;;;180.88;;
53036;SDS011;38924;52.134;4.666;2022-09-21T03:07:09;210.90;;;195.13;;
53036;SDS011;38924;52.134;4.666;2022-09-21T03:09:34;216.70;;;201.57;;
53036;SDS011;38924;52.134;4.666;2022-09-21T03:12:00;184.80;;;172.65;;
53036;SDS011;38924;52.134;4.666;2022-09-21T03:14:26;182.38;;;170.70;;
53036;SDS011;38924;52.134;4.666;2022-09-21T03:16:52;184.43;;;172.73;;
53036;SDS011;38924;52.134;4.666;2022-09-21T03:19:19;185.68;;;173.80;;
53036;SDS011;38924;52.134;4.666;2022-09-21T03:21:44;245.98;;;224.90;;
53036;SDS011;38924;52.134;4.666;2022-09-21T03:24:11;338.63;;;302.92;;
53036;SDS011;38924;52.134;4.666;2022-09-21T03:26:39;242.38;;;223.27;;
53036;SDS011;38924;52.134;4.666;2022-09-21T03:29:05;184.13;;;171.82;;
53036;SDS011;38924;52.134;4.666;2022-09-21T03:31:31;191.63;;;178.73;;
53036;SDS011;38924;52.134;4.666;2022-09-21T03:33:57;181.88;;;170.30;;
53036;SDS011;38924;52.134;4.666;2022-09-21T03:36:23;187.10;;;175.25;;
53036;SDS011;38924;52.134;4.666;2022-09-21T03:38:48;172.25;;;161.32;;
53036;SDS011;38924;52.134;4.666;2022-09-21T03:41:14;172.68;;;161.77;;
53036;SDS011;38924;52.134;4.666;2022-09-21T03:43:40;198.00;;;185.80;;
53036;SDS011;38924;52.134;4.666;2022-09-21T03:46:08;164.70;;;154.25;;
53036;SDS011;38924;52.134;4.666;2022-09-21T03:48:36;182.95;;;171.40;;
53036;SDS011;38924;52.134;4.666;2022-09-21T03:51:02;309.30;;;280.02;;
53036;SDS011;38924;52.134;4.666;2022-09-21T03:53:28;219.88;;;202.15;;
53036;SDS011;38924;52.134;4.666;2022-09-21T03:55:54;193.20;;;180.30;;
53036;SDS011;38924;52.134;4.666;2022-09-21T03:58:20;167.65;;;156.95;;
53036;SDS011;38924;52.134;4.666;2022-09-21T04:00:46;171.35;;;160.00;;
53036;SDS011;38924;52.134;4.666;2022-09-21T04:03:12;186.57;;;174.40;;
53036;SDS011;38924;52.134;4.666;2022-09-21T04:05:39;192.05;;;179.80;;
53036;SDS011;38924;52.134;4.666;2022-09-21T04:08:05;173.63;;;162.77;;
53036;SDS011;38924;52.134;4.666;2022-09-21T04:10:31;166.90;;;156.30;;
53036;SDS011;38924;52.134;4.666;2022-09-21T04:12:58;181.80;;;170.23;;
53036;SDS011;38924;52.134;4.666;2022-09-21T04:15:25;183.23;;;171.45;;
53036;SDS011;38924;52.134;4.666;2022-09-21T04:17:51;168.23;;;157.55;;
53036;SDS011;38924;52.134;4.666;2022-09-21T04:20:18;171.77;;;160.63;;
53036;SDS011;38924;52.134;4.666;2022-09-21T04:22:43;444.92;;;396.48;;
53036;SDS011;38924;52.134;4.666;2022-09-21T04:25:11;250.73;;;229.07;;
53036;SDS011;38924;52.134;4.666;2022-09-21T04:27:37;180.68;;;168.60;;
53036;SDS011;38924;52.134;4.666;2022-09-21T04:30:03;177.10;;;165.88;;
53036;SDS011;38924;52.134;4.666;2022-09-21T04:32:29;183.77;;;172.20;;
53036;SDS011;38924;52.134;4.666;2022-09-21T04:34:55;169.63;;;158.93;;
53036;SDS011;38924;52.134;4.666;2022-09-21T04:37:21;158.25;;;148.07;;
53036;SDS011;38924;52.134;4.666;2022-09-21T04:39:47;160.40;;;150.23;;
53036;SDS011;38924;52.134;4.666;2022-09-21T04:42:21;173.45;;;162.35;;
53036;SDS011;38924;52.134;4.666;2022-09-21T04:44:47;165.52;;;155.20;;
53036;SDS011;38924;52.134;4.666;2022-09-21T04:47:13;182.30;;;170.93;;
53036;SDS011;38924;52.134;4.666;2022-09-21T04:49:39;158.50;;;148.45;;
53036;SDS011;38924;52.134;4.666;2022-09-21T04:52:05;191.65;;;179.63;;
53036;SDS011;38924;52.134;4.666;2022-09-21T04:54:30;333.88;;;301.95;;
53036;SDS011;38924;52.134;4.666;2022-09-21T04:56:56;223.50;;;205.43;;
53036;SDS011;38924;52.134;4.666;2022-09-21T04:59:22;178.20;;;165.75;;
53036;SDS011;38924;52.134;4.666;2022-09-21T05:01:50;172.68;;;161.57;;
53036;SDS011;38924;52.134;4.666;2022-09-21T05:04:16;157.00;;;146.90;;
53036;SDS011;38924;52.134;4.666;2022-09-21T05:06:42;171.68;;;160.85;;
53036;SDS011;38924;52.134;4.666;2022-09-21T05:09:07;176.73;;;165.80;;
53036;SDS011;38924;52.134;4.666;2022-09-21T05:11:51;178.53;;;165.57;;
53036;SDS011;38924;52.134;4.666;2022-09-21T05:14:17;206.57;;;190.95;;
53036;SDS011;38924;52.134;4.666;2022-09-21T05:16:43;182.55;;;169.98;;
53036;SDS011;38924;52.134;4.666;2022-09-21T05:19:09;181.85;;;170.02;;
53036;SDS011;38924;52.134;4.666;2022-09-21T05:21:35;172.15;;;160.98;;
53036;SDS011;38924;52.134;4.666;2022-09-21T05:24:01;179.00;;;167.48;;
53036;SDS011;38924;52.134;4.666;2022-09-21T05:26:27;173.43;;;162.23;;
53036;SDS011;38924;52.134;4.666;2022-09-21T05:28:53;171.65;;;160.65;;
53036;SDS011;38924;52.134;4.666;2022-09-21T05:31:25;182.05;;;170.65;;
53036;SDS011;38924;52.134;4.666;2022-09-21T05:36:57;174.10;;;162.57;;
53036;SDS011;38924;52.134;4.666;2022-09-21T05:39:24;168.38;;;157.43;;
53036;SDS011;38924;52.134;4.666;2022-09-21T05:41:50;188.43;;;176.30;;
53036;SDS011;38924;52.134;4.666;2022-09-21T05:44:16;169.48;;;158.40;;
53036;SDS011;38924;52.134;4.666;2022-09-21T05:51:59;190.55;;;178.63;;
53036;SDS011;38924;52.134;4.666;2022-09-21T05:57:17;180.30;;;168.98;;
53036;SDS011;38924;52.134;4.666;2022-09-21T05:59:47;183.57;;;172.05;;
53036;SDS011;38924;52.134;4.666;2022-09-21T06:04:56;181.93;;;169.55;;
53036;SDS011;38924;52.134;4.666;2022-09-21T06:07:22;194.73;;;182.38;;
53036;SDS011;38924;52.134;4.666;2022-09-21T06:09:47;177.32;;;165.85;;
53036;SDS011;38924;52.134;4.666;2022-09-21T06:12:13;198.48;;;185.63;;
53036;SDS011;38924;52.134;4.666;2022-09-21T06:14:39;198.48;;;185.65;;
53036;SDS011;38924;52.134;4.666;2022-09-21T06:17:04;198.32;;;185.40;;
53036;SDS011;38924;52.134;4.666;2022-09-21T06:19:30;184.10;;;172.02;;
53036;SDS011;38924;52.134;4.666;2022-09-21T06:21:56;192.82;;;180.27;;
53036;SDS011;38924;52.134;4.666;2022-09-21T06:24:21;198.38;;;185.68;;
53036;SDS011;38924;52.134;4.666;2022-09-21T06:26:50;178.18;;;166.80;;
53036;SDS011;38924;52.134;4.666;2022-09-21T06:29:16;175.85;;;164.50;;
53036;SDS011;38924;52.134;4.666;2022-09-21T06:31:50;198.25;;;185.60;;
53036;SDS011;38924;52.134;4.666;2022-09-21T06:34:16;198.38;;;185.93;;
53036;SDS011;38924;52.134;4.666;2022-09-21T06:36:42;200.50;;;187.57;;
53036;SDS011;38924;52.134;4.666;2022-09-21T06:39:10;199.45;;;186.48;;
53036;SDS011;38924;52.134;4.666;2022-09-21T06:41:41;193.75;;;181.43;;
53036;SDS011;38924;52.134;4.666;2022-09-21T06:44:09;201.45;;;188.77;;
53036;SDS011;38924;52.134;4.666;2022-09-21T06:46:34;214.15;;;200.30;;
53036;SDS011;38924;52.134;4.666;2022-09-21T06:49:00;255.18;;;239.15;;
53036;SDS011;38924;52.134;4.666;2022-09-21T06:51:26;252.48;;;236.93;;
53036;SDS011;38924;52.134;4.666;2022-09-21T06:53:55;245.30;;;230.10;;
53036;SDS011;38924;52.134;4.666;2022-09-21T06:56:21;262.45;;;245.73;;
53036;SDS011;38924;52.134;4.666;2022-09-21T06:58:47;268.65;;;251.25;;
53036;SDS011;38924;52.134;4.666;2022-09-21T07:01:13;301.48;;;282.45;;
53036;SDS011;38924;52.134;4.666;2022-09-21T07:03:40;335.58;;;314.17;;
53036;SDS011;38924;52.134;4.666;2022-09-21T07:06:06;303.65;;;283.98;;
53036;SDS011;38924;52.134;4.666;2022-09-21T07:08:32;322.02;;;301.20;;
53036;SDS011;38924;52.134;4.666;2022-09-21T07:10:59;327.48;;;305.42;;
53036;SDS011;38924;52.134;4.666;2022-09-21T07:13:28;324.52;;;303.90;;
53036;SDS011;38924;52.134;4.666;2022-09-21T07:15:53;330.48;;;309.02;;
53036;SDS011;38924;52.134;4.666;2022-09-21T07:18:20;414.35;;;385.33;;
53036;SDS011;38924;52.134;4.666;2022-09-21T07:20:46;438.95;;;408.63;;
53036;SDS011;38924;52.134;4.666;2022-09-21T07:23:17;524.15;;;485.85;;
53036;SDS011;38924;52.134;4.666;2022-09-21T07:25:43;474.25;;;441.27;;
53036;SDS011;38924;52.134;4.666;2022-09-21T07:28:10;498.55;;;462.63;;
53036;SDS011;38924;52.134;4.666;2022-09-21T07:30:36;610.42;;;564.30;;
53036;SDS011;38924;52.134;4.666;2022-09-21T07:33:03;675.10;;;623.85;;
53036;SDS011;38924;52.134;4.666;2022-09-21T07:35:29;701.47;;;647.40;;
53036;SDS011;38924;52.134;4.666;2022-09-21T07:37:58;682.90;;;629.97;;
53036;SDS011;38924;52.134;4.666;2022-09-21T07:40:24;706.17;;;651.40;;
53036;SDS011;38924;52.134;4.666;2022-09-21T07:42:50;735.85;;;679.47;;
53036;SDS011;38924;52.134;4.666;2022-09-21T07:45:18;688.00;;;635.10;;
53036;SDS011;38924;52.134;4.666;2022-09-21T07:47:44;735.28;;;677.65;;
53036;SDS011;38924;52.134;4.666;2022-09-21T07:50:10;737.35;;;679.72;;
53036;SDS011;38924;52.134;4.666;2022-09-21T07:52:36;773.05;;;710.90;;
53036;SDS011;38924;52.134;4.666;2022-09-21T07:55:02;755.40;;;694.42;;
53036;SDS011;38924;52.134;4.666;2022-09-21T07:57:27;723.05;;;665.65;;
53036;SDS011;38924;52.134;4.666;2022-09-21T08:00:12;832.20;;;766.28;;
53036;SDS011;38924;52.134;4.666;2022-09-21T08:02:37;833.20;;;766.50;;
53036;SDS011;38924;52.134;4.666;2022-09-21T08:05:03;808.08;;;744.33;;
53036;SDS011;38924;52.134;4.666;2022-09-21T08:07:29;809.78;;;747.70;;
53036;SDS011;38924;52.134;4.666;2022-09-21T08:09:55;802.35;;;739.83;;
53036;SDS011;38924;52.134;4.666;2022-09-21T08:12:21;795.90;;;733.58;;
53036;SDS011;38924;52.134;4.666;2022-09-21T08:14:47;810.88;;;747.00;;
53036;SDS011;38924;52.134;4.666;2022-09-21T08:17:12;815.35;;;751.75;;
53036;SDS011;38924;52.134;4.666;2022-09-21T08:19:38;817.95;;;753.65;;
53036;SDS011;38924;52.134;4.666;2022-09-21T08:22:04;807.45;;;745.22;;
53036;SDS011;38924;52.134;4.666;2022-09-21T08:24:31;762.10;;;701.33;;
53036;SDS011;38924;52.134;4.666;2022-09-21T08:26:57;783.80;;;723.03;;
53036;SDS011;38924;52.134;4.666;2022-09-21T08:29:24;799.20;;;734.30;;
53036;SDS011;38924;52.134;4.666;2022-09-21T08:31:50;809.13;;;744.58;;
53036;SDS011;38924;52.134;4.666;2022-09-21T08:34:18;767.72;;;706.28;;
53036;SDS011;38924;52.134;4.666;2022-09-21T08:36:44;776.20;;;712.08;;
53036;SDS011;38924;52.134;4.666;2022-09-21T08:39:10;803.47;;;738.70;;
53036;SDS011;38924;52.134;4.666;2022-09-21T08:44:22;770.83;;;710.75;;
53036;SDS011;38924;52.134;4.666;2022-09-21T08:46:53;781.28;;;717.88;;
53036;SDS011;38924;52.134;4.666;2022-09-21T08:49:23;842.90;;;773.10;;
53036;SDS011;38924;52.134;4.666;2022-09-21T08:52:11;779.80;;;717.97;;
53036;SDS011;38924;52.134;4.666;2022-09-21T08:54:54;821.80;;;756.10;;
53036;SDS011;38924;52.134;4.666;2022-09-21T08:57:24;758.78;;;700.75;;
53036;SDS011;38924;52.134;4.666;2022-09-21T08:59:50;751.85;;;693.33;;
53036;SDS011;38924;52.134;4.666;2022-09-21T09:18:12;748.92;;;688.58;;
53036;SDS011;38924;52.134;4.666;2022-09-21T09:20:43;756.70;;;697.13;;
53036;SDS011;38924;52.134;4.666;2022-09-21T09:25:45;739.50;;;682.17;;
53036;SDS011;38924;52.134;4.666;2022-09-21T09:28:28;787.83;;;727.00;;
53036;SDS011;38924;52.134;4.666;2022-09-21T09:30:59;809.78;;;748.10;;
53036;SDS011;38924;52.134;4.666;2022-09-21T09:33:27;736.95;;;678.92;;
53036;SDS011;38924;52.134;4.666;2022-09-21T09:36:02;735.00;;;675.75;;
53036;SDS011;38924;52.134;4.666;2022-09-21T09:38:38;782.53;;;722.40;;
53036;SDS011;38924;52.134;4.666;2022-09-21T09:41:07;843.55;;;778.72;;
53036;SDS011;38924;52.134;4.666;2022-09-21T09:43:51;803.72;;;739.80;;
53036;SDS011;38924;52.134;4.666;2022-09-21T09:51:18;877.05;;;806.25;;
53036;SDS011;38924;52.134;4.666;2022-09-21T09:53:46;845.13;;;778.58;;
53036;SDS011;38924;52.134;4.666;2022-09-21T09:56:12;837.40;;;770.42;;
53036;SDS011;38924;52.134;4.666;2022-09-21T10:04:08;852.00;;;780.30;;
53036;SDS011;38924;52.134;4.666;2022-09-21T10:06:34;845.58;;;777.90;;
53036;SDS011;38924;52.134;4.666;2022-09-21T10:09:00;800.60;;;735.50;;
53036;SDS011;38924;52.134;4.666;2022-09-21T10:11:41;832.50;;;765.88;;
53036;SDS011;38924;52.134;4.666;2022-09-21T10:14:08;786.13;;;720.33;;
53036;SDS011;38924;52.134;4.666;2022-09-21T10:16:40;817.80;;;752.20;;
53036;SDS011;38924;52.134;4.666;2022-09-21T10:19:11;818.38;;;752.38;;
53036;SDS011;38924;52.134;4.666;2022-09-21T10:21:39;832.10;;;762.97;;
53036;SDS011;38924;52.134;4.666;2022-09-21T10:34:32;821.63;;;754.38;;
53036;SDS011;38924;52.134;4.666;2022-09-21T10:36:59;800.28;;;734.67;;
53036;SDS011;38924;52.134;4.666;2022-09-21T10:42:01;850.42;;;778.45;;
53036;SDS011;38924;52.134;4.666;2022-09-21T10:44:32;863.47;;;791.83;;
53036;SDS011;38924;52.134;4.666;2022-09-21T10:47:00;807.75;;;740.33;;
53036;SDS011;38924;52.134;4.666;2022-09-21T10:49:27;816.58;;;748.65;;
53036;SDS011;38924;52.134;4.666;2022-09-21T10:51:55;875.20;;;801.35;;
53036;SDS011;38924;52.134;4.666;2022-09-21T10:54:23;801.53;;;735.78;;
53036;SDS011;38924;52.134;4.666;2022-09-21T10:56:53;796.22;;;731.00;;
53036;SDS011;38924;52.134;4.666;2022-09-21T11:01:45;834.95;;;767.70;;
53036;SDS011;38924;52.134;4.666;2022-09-21T11:06:43;838.05;;;769.83;;
53036;SDS011;38924;52.134;4.666;2022-09-21T11:11:41;815.53;;;748.17;;
53036;SDS011;38924;52.134;4.666;2022-09-21T11:14:16;833.05;;;766.30;;
53036;SDS011;38924;52.134;4.666;2022-09-21T11:16:46;840.95;;;771.90;;
53036;SDS011;38924;52.134;4.666;2022-09-21T11:22:00;793.95;;;729.83;;
53036;SDS011;38924;52.134;4.666;2022-09-21T11:27:03;854.10;;;780.70;;
53036;SDS011;38924;52.134;4.666;2022-09-21T11:39:27;776.55;;;714.50;;
53036;SDS011;38924;52.134;4.666;2022-09-21T11:44:42;751.38;;;689.40;;
53036;SDS011;38924;52.134;4.666;2022-09-21T11:47:28;758.75;;;696.42;;
53036;SDS011;38924;52.134;4.666;2022-09-21T12:00:16;746.58;;;688.08;;
53036;SDS011;38924;52.134;4.666;2022-09-21T12:13:37;830.03;;;762.72;;
53036;SDS011;38924;52.134;4.666;2022-09-21T12:18:51;824.83;;;757.17;;
53036;SDS011;38924;52.134;4.666;2022-09-21T12:21:26;826.38;;;758.03;;
53036;SDS011;38924;52.134;4.666;2022-09-21T12:23:56;804.13;;;738.15;;
53036;SDS011;38924;52.134;4.666;2022-09-21T12:26:28;773.42;;;711.58;;
53036;SDS011;38924;52.134;4.666;2022-09-21T12:29:00;734.90;;;675.42;;
53036;SDS011;38924;52.134;4.666;2022-09-21T12:31:37;763.85;;;703.33;;
53036;SDS011;38924;52.134;4.666;2022-09-21T12:37:12;747.13;;;687.92;;
53036;SDS011;38924;52.134;4.666;2022-09-21T12:39:41;707.50;;;651.10;;
53036;SDS011;38924;52.134;4.666;2022-09-21T12:42:13;706.90;;;651.90;;
53036;SDS011;38924;52.134;4.666;2022-09-21T12:45:02;747.35;;;689.60;;
53036;SDS011;38924;52.134;4.666;2022-09-21T12:47:51;776.13;;;714.78;;
53036;SDS011;38924;52.134;4.666;2022-09-21T12:52:48;766.92;;;707.03;;
53036;SDS011;38924;52.134;4.666;2022-09-21T12:55:38;761.65;;;700.53;;
53036;SDS011;38924;52.134;4.666;2022-09-21T12:58:08;808.80;;;744.95;;
53036;SDS011;38924;52.134;4.666;2022-09-21T13:00:39;833.20;;;765.42;;
53036;SDS011;38924;52.134;4.666;2022-09-21T13:03:10;851.78;;;782.88;;
53036;SDS011;38924;52.134;4.666;2022-09-21T13:08:25;789.80;;;726.20;;
53036;SDS011;38924;52.134;4.666;2022-09-21T13:15:48;847.47;;;779.90;;
53036;SDS011;38924;52.134;4.666;2022-09-21T13:18:19;791.20;;;727.35;;
53036;SDS011;38924;52.134;4.666;2022-09-21T13:20:48;803.92;;;736.22;;
53036;SDS011;38924;52.134;4.666;2022-09-21T13:23:17;810.38;;;745.13;;
53036;SDS011;38924;52.134;4.666;2022-09-21T13:25:48;825.70;;;757.60;;
53036;SDS011;38924;52.134;4.666;2022-09-21T13:38:26;680.42;;;626.83;;
53036;SDS011;38924;52.134;4.666;2022-09-21T13:40:58;745.25;;;688.35;;
53036;SDS011;38924;52.134;4.666;2022-09-21T13:43:40;712.53;;;656.92;;
53036;SDS011;38924;52.134;4.666;2022-09-21T13:46:43;599.28;;;553.25;;
53036;SDS011;38924;52.134;4.666;2022-09-21T13:48:56;679.58;;;627.72;;
53036;SDS011;38924;52.134;4.666;2022-09-21T13:51:22;681.78;;;629.90;;
53036;SDS011;38924;52.134;4.666;2022-09-21T13:53:48;580.20;;;536.42;;
53036;SDS011;38924;52.134;4.666;2022-09-21T13:56:19;559.67;;;517.80;;
53036;SDS011;38924;52.134;4.666;2022-09-21T13:58:47;690.45;;;638.65;;
53036;SDS011;38924;52.134;4.666;2022-09-21T14:01:16;521.05;;;482.48;;
53036;SDS011;38924;52.134;4.666;2022-09-21T14:03:44;599.40;;;554.90;;
53036;SDS011;38924;52.134;4.666;2022-09-21T14:06:12;618.08;;;570.83;;
53036;SDS011;38924;52.134;4.666;2022-09-21T14:08:45;540.53;;;500.63;;
53036;SDS011;38924;52.134;4.666;2022-09-21T14:11:16;648.50;;;600.75;;
53036;SDS011;38924;52.134;4.666;2022-09-21T14:13:45;563.95;;;522.47;;
53036;SDS011;38924;52.134;4.666;2022-09-21T14:19:00;526.20;;;487.60;;
53036;SDS011;38924;52.134;4.666;2022-09-21T14:21:26;624.25;;;577.35;;
53036;SDS011;38924;52.134;4.666;2022-09-21T14:31:56;590.00;;;545.58;;
53036;SDS011;38924;52.134;4.666;2022-09-21T14:34:24;624.53;;;577.63;;
53036;SDS011;38924;52.134;4.666;2022-09-21T14:36:53;602.53;;;558.25;;
53036;SDS011;38924;52.134;4.666;2022-09-21T14:39:31;691.00;;;639.45;;
53036;SDS011;38924;52.134;4.666;2022-09-21T14:41:59;581.92;;;539.67;;
53036;SDS011;38924;52.134;4.666;2022-09-21T14:44:26;579.55;;;536.40;;
53036;SDS011;38924;52.134;4.666;2022-09-21T14:54:29;503.65;;;467.60;;
53036;SDS011;38924;52.134;4.666;2022-09-21T14:57:02;503.35;;;466.98;;
53036;SDS011;38924;52.134;4.666;2022-09-21T15:01:59;510.77;;;473.50;;
53036;SDS011;38924;52.134;4.666;2022-09-21T15:07:19;503.93;;;468.00;;
53036;SDS011;38924;52.134;4.666;2022-09-21T15:18:19;441.42;;;409.63;;
53036;SDS011;38924;52.134;4.666;2022-09-21T15:20:53;489.70;;;453.45;;
53036;SDS011;38924;52.134;4.666;2022-09-21T15:23:19;521.83;;;484.63;;
53036;SDS011;38924;52.134;4.666;2022-09-21T15:26:03;481.55;;;447.30;;
53036;SDS011;38924;52.134;4.666;2022-09-21T15:28:35;486.15;;;451.83;;
53036;SDS011;38924;52.134;4.666;2022-09-21T15:31:02;501.60;;;465.63;;
53036;SDS011;38924;52.134;4.666;2022-09-21T15:33:28;459.40;;;426.75;;
53036;SDS011;38924;52.134;4.666;2022-09-21T15:35:55;441.45;;;410.10;;
53036;SDS011;38924;52.134;4.666;2022-09-21T15:38:25;480.88;;;445.50;;
53036;SDS011;38924;52.134;4.666;2022-09-21T15:40:51;459.15;;;426.98;;
53036;SDS011;38924;52.134;4.666;2022-09-21T15:43:18;496.98;;;461.15;;
53036;SDS011;38924;52.134;4.666;2022-09-21T15:45:47;496.02;;;459.55;;
53036;SDS011;38924;52.134;4.666;2022-09-21T15:48:16;515.15;;;477.75;;
53036;SDS011;38924;52.134;4.666;2022-09-21T15:50:42;502.63;;;467.10;;
53036;SDS011;38924;52.134;4.666;2022-09-21T15:53:18;454.00;;;421.75;;
53036;SDS011;38924;52.134;4.666;2022-09-21T15:55:46;480.02;;;445.38;;
53036;SDS011;38924;52.134;4.666;2022-09-21T15:58:16;484.25;;;449.40;;
53036;SDS011;38924;52.134;4.666;2022-09-21T16:00:51;446.63;;;415.50;;
53036;SDS011;38924;52.134;4.666;2022-09-21T16:03:20;423.10;;;393.02;;
53036;SDS011;38924;52.134;4.666;2022-09-21T16:05:53;466.10;;;432.15;;
53036;SDS011;38924;52.134;4.666;2022-09-21T16:08:27;443.52;;;412.10;;
53036;SDS011;38924;52.134;4.666;2022-09-21T16:11:14;393.17;;;366.90;;
53036;SDS011;38924;52.134;4.666;2022-09-21T16:13:41;412.92;;;384.15;;
53036;SDS011;38924;52.134;4.666;2022-09-21T16:16:25;421.33;;;392.40;;
53036;SDS011;38924;52.134;4.666;2022-09-21T16:18:52;381.35;;;355.58;;
53036;SDS011;38924;52.134;4.666;2022-09-21T16:23:46;423.38;;;393.52;;
53036;SDS011;38924;52.134;4.666;2022-09-21T16:26:33;417.20;;;388.52;;
53036;SDS011;38924;52.134;4.666;2022-09-21T16:31:33;410.55;;;382.42;;
53036;SDS011;38924;52.134;4.666;2022-09-21T16:34:12;423.30;;;393.15;;
53036;SDS011;38924;52.134;4.666;2022-09-21T16:36:43;380.25;;;354.70;;
53036;SDS011;38924;52.134;4.666;2022-09-21T16:39:10;388.90;;;362.58;;
53036;SDS011;38924;52.134;4.666;2022-09-21T16:41:37;364.60;;;339.85;;
53036;SDS011;38924;52.134;4.666;2022-09-21T16:44:13;355.38;;;331.85;;
53036;SDS011;38924;52.134;4.666;2022-09-21T16:46:44;374.02;;;349.63;;
53036;SDS011;38924;52.134;4.666;2022-09-21T16:49:14;402.30;;;373.70;;
53036;SDS011;38924;52.134;4.666;2022-09-21T16:51:43;378.70;;;353.00;;
53036;SDS011;38924;52.134;4.666;2022-09-21T16:54:13;369.10;;;344.08;;
53036;SDS011;38924;52.134;4.666;2022-09-21T16:56:39;395.70;;;368.83;;
53036;SDS011;38924;52.134;4.666;2022-09-21T16:59:10;388.67;;;362.52;;
53036;SDS011;38924;52.134;4.666;2022-09-21T17:01:39;363.35;;;339.15;;
53036;SDS011;38924;52.134;4.666;2022-09-21T17:04:05;352.27;;;329.48;;
53036;SDS011;38924;52.134;4.666;2022-09-21T17:06:30;382.50;;;356.60;;
53036;SDS011;38924;52.134;4.666;2022-09-21T17:08:56;355.27;;;331.27;;
53036;SDS011;38924;52.134;4.666;2022-09-21T17:11:25;357.38;;;333.48;;
53036;SDS011;38924;52.134;4.666;2022-09-21T17:13:51;387.30;;;361.58;;